aviador You're here:

KPIA Decoded Metar

PEORIA in IL, USA
Report Time2017-08-17 23:54:00
UTC Time2017-08-18 00:56:00
Flight Rules vfr VFR
Wind310° at 09 Gusting to 17 kt
W.Decomp.*RWY 31: 9.0 kt HW 0.2 kt LCW
RWY 22: 0.2 kt HW 9.0 kt RCW
W.Rank310° ranks 8
Current wind is above 310° avg. (7.1)
Visibility9999 m
Phenomena:N/A
Clouds:Scattered 044 Hf
Broken 060 Hf
Expected CloudBase > 3,600 ft AGL from Temp-Dew spread
Ceiling6,000 ft
Temp28°C (ISA +14)
Dew Point19°C (58% RH)
Heat Index29.2°C
QNH1009 hPa
Density Alt2,749 ft
Elevation673 ft
Report Wrong Elevation
Raw Report
KPIA 172354Z 31009G17KT 10SM SCT044 BKN060 28/19 A2980 RMK AO2
SLP086 T02780189 10300 20267 53003=

Extra information for KPIA:More info

Metar Taf Metar & Taf Last 4 Metars F.Rules Stats Wind Profile Meteogram Temp Stats Airport Information Weather charts Add Link Nearby VenuesMetar ALERT Operation Metar Decoded Social comments

AIRNAV info for KPIA